Time;durP1;ratioP1;P1;durP2;ratioP2;P2;SDS_P1;SDS_P2;PMS_P1;PMS_P2;Temp;Humidity;BMP_temperature;BMP_pressure;BME280_temperature;BME280_humidity;BME280_pressure;Samples;Min_cycle;Max_cycle;Signal;HPM_P1;HPM_P2
2021/11/12 00:04:18;;;;;;;146.27;63.95;;;;;;;;;;5073245;28;20045;-70
2021/11/12 00:14:55;;;;;;;175.30;65.90;;;;;;;;;;5072874;28;20041;-71
2021/11/12 00:17:23;;;;;;;162.52;67.97;;;;;;;;;;5072651;28;20028;-71
2021/11/12 00:19:49;;;;;;;115.65;57.78;;;;;;;;;;5072736;28;20044;-71
2021/11/12 00:22:15;;;;;;;110.20;55.15;;;;;;;;;;5072997;28;20563;-71
2021/11/12 00:24:41;;;;;;;125.88;58.47;;;;;;;;;;5072211;28;20077;-71
2021/11/12 00:27:08;;;;;;;149.18;66.82;;;;;;;;;;5055088;28;20040;-70
2021/11/12 00:29:41;;;;;;;143.30;66.10;;;;;;;;;;5072527;28;20032;-70
2021/11/12 00:33:01;;;;;;;123.22;59.88;;;;;;;;;;5072469;28;20036;-70
2021/11/12 00:40:01;;;;;;;131.70;60.92;;;;;;;;;;5074762;28;20120;-76
2021/11/12 00:43:05;;;;;;;134.40;61.70;;;;;;;;;;5058389;28;20369;-75
2021/11/12 00:45:22;;;;;;;133.65;61.67;;;;;;;;;;5074039;28;20535;-75
2021/11/12 00:55:22;;;;;;;140.68;63.85;;;;;;;;;;5075899;28;20032;-75
2021/11/12 00:57:48;;;;;;;151.77;66.57;;;;;;;;;;5076136;28;20465;-76
2021/11/12 01:00:15;;;;;;;153.63;68.65;;;;;;;;;;5076107;28;20353;-76
2021/11/12 01:02:40;;;;;;;145.15;67.03;;;;;;;;;;5057861;28;20463;-75
2021/11/12 01:05:07;;;;;;;125.25;62.25;;;;;;;;;;5075938;28;20056;-75
2021/11/12 01:07:32;;;;;;;118.65;58.65;;;;;;;;;;5075844;28;20058;-75
2021/11/12 01:09:59;;;;;;;103.90;54.20;;;;;;;;;;5075850;28;20067;-75
2021/11/12 01:12:25;;;;;;;87.28;46.85;;;;;;;;;;5075356;28;20025;-75
2021/11/12 01:14:51;;;;;;;80.90;45.35;;;;;;;;;;5075424;28;20035;-75
2021/11/12 01:17:16;;;;;;;85.15;45.30;;;;;;;;;;5075397;28;20020;-75
2021/11/12 01:19:42;;;;;;;78.95;44.97;;;;;;;;;;5074853;28;20488;-75
2021/11/12 01:22:07;;;;;;;76.85;42.88;;;;;;;;;;5075470;28;20429;-75
2021/11/12 01:24:35;;;;;;;73.03;40.40;;;;;;;;;;5075175;28;20469;-75
2021/11/12 01:27:01;;;;;;;70.63;41.55;;;;;;;;;;5057626;28;20485;-75
2021/11/12 01:29:26;;;;;;;66.28;38.13;;;;;;;;;;5075084;28;20127;-75
2021/11/12 01:31:52;;;;;;;58.25;35.15;;;;;;;;;;5075237;28;20144;-75
2021/11/12 01:34:21;;;;;;;65.53;37.83;;;;;;;;;;5075409;28;20342;-76
2021/11/12 01:36:47;;;;;;;63.78;35.83;;;;;;;;;;5057008;28;20086;-75
2021/11/12 01:39:20;;;;;;;66.82;39.17;;;;;;;;;;5075083;28;20045;-75
2021/11/12 01:41:51;;;;;;;70.80;40.78;;;;;;;;;;5075205;28;20055;-75
2021/11/12 01:44:26;;;;;;;76.50;43.75;;;;;;;;;;5075083;28;20048;-75
2021/11/12 01:52:19;;;;;;;79.40;42.95;;;;;;;;;;5073220;28;20052;-69
2021/11/12 01:55:37;;;;;;;73.50;40.00;;;;;;;;;;5070904;28;20080;-70
2021/11/12 02:00:00;;;;;;;70.22;38.33;;;;;;;;;;5074705;28;20033;-70
2021/11/12 02:02:26;;;;;;;68.82;39.40;;;;;;;;;;5074631;28;20032;-69
2021/11/12 02:04:54;;;;;;;65.50;38.13;;;;;;;;;;5057394;28;20043;-70
2021/11/12 02:07:20;;;;;;;67.85;38.17;;;;;;;;;;5074737;28;20025;-71
2021/11/12 02:09:46;;;;;;;66.80;37.90;;;;;;;;;;5056794;28;20044;-70
2021/11/12 02:14:42;;;;;;;61.72;35.45;;;;;;;;;;5074331;28;20029;-70
2021/11/12 02:17:33;;;;;;;62.53;36.13;;;;;;;;;;5056401;28;20040;-70
2021/11/12 02:19:59;;;;;;;63.40;36.53;;;;;;;;;;5074228;28;20397;-69
2021/11/12 02:22:28;;;;;;;65.97;37.33;;;;;;;;;;5074395;28;20079;-70
2021/11/12 02:25:01;;;;;;;67.03;37.47;;;;;;;;;;5073711;28;20364;-75
2021/11/12 02:27:35;;;;;;;63.78;36.30;;;;;;;;;;5074574;28;20067;-69
2021/11/12 02:30:01;;;;;;;66.30;36.95;;;;;;;;;;5074018;28;20048;-74
2021/11/12 02:32:28;;;;;;;62.72;36.70;;;;;;;;;;5073858;28;20025;-70
2021/11/12 02:34:55;;;;;;;60.75;35.60;;;;;;;;;;5073872;28;20524;-70
2021/11/12 02:37:22;;;;;;;75.78;39.15;;;;;;;;;;5074428;28;20028;-75
2021/11/12 02:39:48;;;;;;;75.60;39.30;;;;;;;;;;5074113;28;20036;-75
2021/11/12 02:42:14;;;;;;;69.63;39.90;;;;;;;;;;5056254;28;20032;-75
2021/11/12 02:44:40;;;;;;;70.57;39.15;;;;;;;;;;5073535;28;20043;-75
2021/11/12 02:47:07;;;;;;;70.40;38.55;;;;;;;;;;5074414;28;20379;-75
2021/11/12 02:49:33;;;;;;;68.90;37.83;;;;;;;;;;5074101;28;20048;-75
2021/11/12 02:51:58;;;;;;;63.92;37.38;;;;;;;;;;5073770;28;20024;-75
2021/11/12 02:54:25;;;;;;;67.30;37.58;;;;;;;;;;5073839;28;20060;-75
2021/11/12 02:56:54;;;;;;;70.03;37.10;;;;;;;;;;5055971;28;20039;-75
2021/11/12 02:59:21;;;;;;;69.10;36.08;;;;;;;;;;5074000;28;20079;-75
2021/11/12 03:01:48;;;;;;;70.93;39.05;;;;;;;;;;5073398;28;20024;-74
2021/11/12 03:04:14;;;;;;;73.65;39.00;;;;;;;;;;5055895;28;20036;-74
2021/11/12 03:06:40;;;;;;;64.32;36.50;;;;;;;;;;5073524;28;20484;-74
2021/11/12 03:09:08;;;;;;;66.75;36.53;;;;;;;;;;5055444;28;20059;-74
2021/11/12 03:11:34;;;;;;;62.55;34.30;;;;;;;;;;5073275;28;20039;-74
2021/11/12 03:14:00;;;;;;;63.58;35.35;;;;;;;;;;5055617;28;20040;-74
2021/11/12 03:16:25;;;;;;;63.28;35.47;;;;;;;;;;5073637;28;20024;-74
2021/11/12 03:18:52;;;;;;;63.15;35.47;;;;;;;;;;5073559;28;20041;-74
2021/11/12 03:21:20;;;;;;;61.28;34.55;;;;;;;;;;5073644;28;20028;-74
2021/11/12 03:23:55;;;;;;;62.47;34.05;;;;;;;;;;5055628;28;20040;-75
2021/11/12 04:01:47;;;;;;;66.75;34.53;;;;;;;;;;5072974;28;20040;-74
2021/11/12 04:30:35;;;;;;;64.07;33.95;;;;;;;;;;5076739;28;20120;-74
2021/11/12 05:43:55;;;;;;;89.45;41.33;;;;;;;;;;5075176;28;20404;-74
2021/11/12 05:56:46;;;;;;;77.15;36.33;;;;;;;;;;5074814;28;20040;-74
2021/11/12 05:59:13;;;;;;;84.68;39.47;;;;;;;;;;5074496;28;20029;-75
2021/11/12 06:01:40;;;;;;;83.97;40.53;;;;;;;;;;5073517;28;20686;-74
2021/11/12 06:04:07;;;;;;;85.68;38.90;;;;;;;;;;5071651;28;20020;-74
2021/11/12 06:06:33;;;;;;;81.25;36.35;;;;;;;;;;5073976;28;20048;-75
2021/11/12 06:09:00;;;;;;;78.53;38.08;;;;;;;;;;5074563;28;20032;-75
2021/11/12 06:11:27;;;;;;;81.35;37.30;;;;;;;;;;5074044;28;20035;-75
2021/11/12 06:13:59;;;;;;;79.28;36.35;;;;;;;;;;5073714;28;20017;-74
2021/11/12 06:16:27;;;;;;;76.53;35.25;;;;;;;;;;5073370;28;20052;-73
2021/11/12 06:18:53;;;;;;;76.13;35.45;;;;;;;;;;5073460;28;20115;-74
2021/11/12 06:21:20;;;;;;;71.45;34.72;;;;;;;;;;5073340;28;20455;-74
2021/11/12 06:23:46;;;;;;;76.38;34.95;;;;;;;;;;5074095;28;20035;-75
2021/11/12 06:26:12;;;;;;;70.70;32.58;;;;;;;;;;5073097;28;20045;-75
2021/11/12 06:28:38;;;;;;;74.22;34.40;;;;;;;;;;5070791;28;20090;-69
2021/11/12 06:31:04;;;;;;;76.28;35.30;;;;;;;;;;5045657;28;20049;-69
2021/11/12 06:33:30;;;;;;;74.65;35.88;;;;;;;;;;5058174;28;20032;-69
2021/11/12 06:35:56;;;;;;;70.78;35.53;;;;;;;;;;5058734;28;20033;-69
2021/11/12 06:38:25;;;;;;;75.82;35.13;;;;;;;;;;5057138;28;20485;-69
2021/11/12 06:40:55;;;;;;;73.13;34.85;;;;;;;;;;5053047;28;20123;-70
2021/11/12 06:43:28;;;;;;;73.63;36.17;;;;;;;;;;5042204;28;20045;-68
2021/11/12 06:51:25;;;;;;;79.43;38.67;;;;;;;;;;5053038;28;20040;-69
2021/11/12 06:53:52;;;;;;;99.18;44.97;;;;;;;;;;5052922;28;20561;-68
2021/11/12 06:56:19;;;;;;;109.78;48.30;;;;;;;;;;5053017;28;20068;-69
2021/11/12 06:58:45;;;;;;;119.40;51.90;;;;;;;;;;5052964;28;20477;-69
2021/11/12 07:01:11;;;;;;;138.38;59.35;;;;;;;;;;5052826;28;20029;-69
2021/11/12 07:03:36;;;;;;;147.95;61.63;;;;;;;;;;5052855;28;20025;-69
2021/11/12 07:06:02;;;;;;;139.38;60.55;;;;;;;;;;5052720;28;20044;-69
2021/11/12 07:08:29;;;;;;;133.98;60.83;;;;;;;;;;5052800;28;20033;-69
2021/11/12 07:10:56;;;;;;;138.82;61.25;;;;;;;;;;5052391;28;20039;-69
2021/11/12 07:13:25;;;;;;;137.40;60.05;;;;;;;;;;5052580;28;20024;-69
2021/11/12 07:15:52;;;;;;;141.38;59.60;;;;;;;;;;5052401;28;20377;-69
2021/11/12 07:18:19;;;;;;;137.80;60.15;;;;;;;;;;5034902;28;20028;-74
2021/11/12 07:20:46;;;;;;;134.13;58.95;;;;;;;;;;5052581;28;20045;-74
2021/11/12 07:23:12;;;;;;;129.73;58.45;;;;;;;;;;5052751;28;20428;-74
2021/11/12 07:25:37;;;;;;;101.53;45.73;;;;;;;;;;5019112;28;1280167;-74
2021/11/12 07:28:03;;;;;;;104.50;46.42;;;;;;;;;;5073439;28;20282;-74
2021/11/12 07:30:30;;;;;;;100.85;46.95;;;;;;;;;;5072862;28;20032;-74
2021/11/12 07:32:55;;;;;;;97.60;44.88;;;;;;;;;;5072994;28;20072;-74
2021/11/12 07:35:25;;;;;;;103.93;45.60;;;;;;;;;;5073195;28;20063;-74
2021/11/12 07:37:57;;;;;;;93.13;42.15;;;;;;;;;;5073036;28;20510;-74
2021/11/12 07:40:30;;;;;;;86.72;39.83;;;;;;;;;;5073073;28;20479;-74
2021/11/12 07:43:22;;;;;;;89.40;40.60;;;;;;;;;;5072960;28;20098;-75
2021/11/12 07:45:53;;;;;;;92.80;42.22;;;;;;;;;;5054877;28;20051;-75
2021/11/12 07:48:19;;;;;;;99.60;43.13;;;;;;;;;;5072940;28;20508;-74
2021/11/12 07:50:44;;;;;;;99.15;43.35;;;;;;;;;;5076611;28;20032;-74
2021/11/12 07:53:10;;;;;;;87.30;41.33;;;;;;;;;;5076799;28;20043;-74
2021/11/12 07:55:35;;;;;;;97.72;42.50;;;;;;;;;;5058927;28;20043;-74
2021/11/12 07:58:01;;;;;;;91.47;41.83;;;;;;;;;;5076808;28;20036;-74
2021/11/12 08:00:26;;;;;;;84.95;37.80;;;;;;;;;;5058844;28;20020;-75
2021/11/12 08:02:54;;;;;;;86.68;40.08;;;;;;;;;;5076781;28;20124;-74
2021/11/12 08:05:24;;;;;;;83.63;38.15;;;;;;;;;;5076593;28;20356;-74
2021/11/12 08:07:53;;;;;;;85.13;38.75;;;;;;;;;;5076732;28;20040;-75
2021/11/12 08:10:21;;;;;;;80.75;38.25;;;;;;;;;;5076668;28;20042;-75
2021/11/12 08:13:52;;;;;;;88.63;40.83;;;;;;;;;;5076695;28;20495;-75
2021/11/12 08:16:01;;;;;;;81.97;39.15;;;;;;;;;;5062596;28;20045;-75
2021/11/12 08:21:19;;;;;;;70.47;35.03;;;;;;;;;;5076686;28;20098;-74
2021/11/12 08:31:48;;;;;;;76.97;34.40;;;;;;;;;;5058770;28;20123;-75
2021/11/12 08:37:25;;;;;;;72.70;34.20;;;;;;;;;;5076481;28;20051;-71
2021/11/12 08:42:22;;;;;;;70.22;33.65;;;;;;;;;;5076368;28;20039;-74
2021/11/12 08:45:02;;;;;;;73.30;35.03;;;;;;;;;;5076294;28;20063;-74
2021/11/12 08:47:38;;;;;;;77.78;36.78;;;;;;;;;;5076433;28;20754;-74
2021/11/12 08:50:06;;;;;;;74.28;34.83;;;;;;;;;;5075954;28;20045;-74
2021/11/12 08:52:31;;;;;;;79.07;36.63;;;;;;;;;;5075837;28;20028;-75
2021/11/12 08:55:02;;;;;;;79.72;38.15;;;;;;;;;;5075911;28;20052;-74
2021/11/12 08:57:28;;;;;;;73.43;34.42;;;;;;;;;;5076147;28;20090;-74
2021/11/12 08:59:54;;;;;;;82.07;35.30;;;;;;;;;;5075573;28;20472;-74
2021/11/12 09:02:24;;;;;;;75.70;35.70;;;;;;;;;;5075982;28;20190;-75
2021/11/12 09:04:50;;;;;;;72.47;33.97;;;;;;;;;;5075712;28;20484;-75
2021/11/12 09:07:16;;;;;;;79.35;34.90;;;;;;;;;;5075898;28;20036;-75
2021/11/12 09:09:42;;;;;;;75.90;35.50;;;;;;;;;;5075063;28;20029;-75
2021/11/12 09:12:09;;;;;;;67.72;33.10;;;;;;;;;;5075212;28;20571;-74
2021/11/12 09:14:39;;;;;;;68.25;32.55;;;;;;;;;;5075311;28;20047;-75
2021/11/12 09:17:07;;;;;;;63.58;32.88;;;;;;;;;;5075323;28;20404;-68
2021/11/12 09:19:33;;;;;;;66.50;32.42;;;;;;;;;;5075411;28;20024;-69
2021/11/12 09:21:58;;;;;;;61.08;32.28;;;;;;;;;;5075194;28;20090;-74
2021/11/12 09:24:24;;;;;;;63.22;32.03;;;;;;;;;;5074879;28;20029;-74
2021/11/12 09:26:49;;;;;;;59.15;29.08;;;;;;;;;;5075488;28;20440;-74
2021/11/12 09:29:15;;;;;;;56.63;29.17;;;;;;;;;;5075143;28;20128;-73
2021/11/12 09:31:41;;;;;;;55.08;29.67;;;;;;;;;;5075069;28;20094;-74
2021/11/12 09:34:10;;;;;;;57.60;31.42;;;;;;;;;;5074975;28;20020;-74
2021/11/12 09:36:35;;;;;;;53.55;27.67;;;;;;;;;;5075094;28;20082;-74
2021/11/12 09:39:01;;;;;;;50.50;28.42;;;;;;;;;;5074970;28;20021;-74
2021/11/12 09:41:28;;;;;;;46.08;26.23;;;;;;;;;;5074976;28;20127;-74
2021/11/12 09:43:54;;;;;;;48.33;27.08;;;;;;;;;;5074935;28;20032;-75
2021/11/12 09:46:20;;;;;;;46.75;27.50;;;;;;;;;;5057022;28;20039;-75
2021/11/12 09:48:45;;;;;;;43.65;25.52;;;;;;;;;;5074880;28;20035;-74
2021/11/12 09:51:11;;;;;;;45.72;26.10;;;;;;;;;;5074709;28;20048;-74
2021/11/12 09:53:37;;;;;;;44.13;24.95;;;;;;;;;;5074751;28;20028;-75
2021/11/12 09:56:03;;;;;;;41.13;24.38;;;;;;;;;;5073352;28;20040;-74
2021/11/12 09:58:30;;;;;;;41.55;24.40;;;;;;;;;;5074670;28;20028;-74
2021/11/12 10:00:58;;;;;;;40.42;25.63;;;;;;;;;;5073805;28;20037;-74
2021/11/12 10:03:30;;;;;;;43.17;25.13;;;;;;;;;;5074604;28;20063;-74
2021/11/12 10:05:56;;;;;;;44.38;24.52;;;;;;;;;;5073974;28;20043;-74
2021/11/12 10:08:21;;;;;;;45.03;25.75;;;;;;;;;;5074493;28;20025;-75
2021/11/12 10:10:49;;;;;;;52.10;28.08;;;;;;;;;;5073826;28;20408;-75
2021/11/12 10:13:34;;;;;;;43.15;25.63;;;;;;;;;;5073771;28;20491;-75
2021/11/12 10:16:44;;;;;;;52.00;28.65;;;;;;;;;;5073963;28;20032;-75
2021/11/12 10:19:02;;;;;;;41.38;23.05;;;;;;;;;;5063393;28;20055;-74
2021/11/12 10:21:47;;;;;;;38.08;22.27;;;;;;;;;;5073673;28;20044;-74
2021/11/12 10:24:16;;;;;;;41.38;24.00;;;;;;;;;;5073933;28;20040;-74
2021/11/12 10:26:48;;;;;;;44.90;25.10;;;;;;;;;;5055762;28;20052;-74
2021/11/12 10:29:19;;;;;;;53.42;34.22;;;;;;;;;;5074312;28;20078;-74
2021/11/12 10:31:46;;;;;;;48.40;28.63;;;;;;;;;;5074001;28;20756;-74
2021/11/12 10:34:15;;;;;;;40.22;25.48;;;;;;;;;;5074122;28;20416;-75
2021/11/12 10:36:48;;;;;;;44.22;25.23;;;;;;;;;;5074007;28;20056;-74
2021/11/12 10:39:14;;;;;;;46.33;26.45;;;;;;;;;;5074062;28;20040;-74
2021/11/12 10:41:39;;;;;;;41.35;24.67;;;;;;;;;;5073670;28;20085;-75
2021/11/12 10:44:11;;;;;;;45.97;27.25;;;;;;;;;;5073154;28;20036;-74
2021/11/12 10:46:44;;;;;;;52.63;31.05;;;;;;;;;;5073280;28;20484;-74
2021/11/12 10:49:37;;;;;;;51.67;30.33;;;;;;;;;;5073303;28;20496;-74
2021/11/12 10:52:16;;;;;;;54.10;32.65;;;;;;;;;;5069065;28;20040;-74
2021/11/12 10:57:16;;;;;;;53.72;29.88;;;;;;;;;;5072886;28;20393;-75
2021/11/12 11:00:04;;;;;;;51.35;29.90;;;;;;;;;;5072383;28;20028;-75
2021/11/12 11:02:33;;;;;;;48.17;27.08;;;;;;;;;;5071803;28;20071;-70
2021/11/12 11:05:04;;;;;;;46.65;27.35;;;;;;;;;;5073072;28;20484;-70
2021/11/12 11:07:29;;;;;;;47.08;27.55;;;;;;;;;;5072837;28;20040;-71
2021/11/12 11:09:57;;;;;;;46.75;27.55;;;;;;;;;;5073041;28;20029;-70
2021/11/12 11:12:30;;;;;;;44.03;26.35;;;;;;;;;;5073146;28;20178;-70
2021/11/12 11:15:09;;;;;;;50.60;30.80;;;;;;;;;;5055347;28;20493;-70
2021/11/12 11:17:38;;;;;;;45.30;27.40;;;;;;;;;;5073201;28;20362;-70
2021/11/12 11:20:10;;;;;;;46.42;27.23;;;;;;;;;;5073338;28;20028;-70
2021/11/12 11:22:46;;;;;;;47.00;27.75;;;;;;;;;;5073430;28;20488;-70
2021/11/12 11:25:12;;;;;;;45.00;27.70;;;;;;;;;;5073125;28;20041;-70
2021/11/12 11:27:38;;;;;;;42.65;24.83;;;;;;;;;;5073708;28;20434;-70
2021/11/12 11:30:04;;;;;;;43.15;24.95;;;;;;;;;;5072983;28;20056;-70
2021/11/12 11:32:31;;;;;;;47.47;27.42;;;;;;;;;;5072808;28;20036;-70
2021/11/12 11:34:57;;;;;;;46.88;27.40;;;;;;;;;;5072928;28;20480;-70
2021/11/12 11:37:23;;;;;;;44.90;28.23;;;;;;;;;;5072696;28;20063;-70
2021/11/12 11:39:49;;;;;;;50.65;29.13;;;;;;;;;;5054376;28;20060;-70
2021/11/12 11:42:14;;;;;;;51.03;29.88;;;;;;;;;;5072559;28;20146;-70
2021/11/12 11:44:40;;;;;;;51.63;30.77;;;;;;;;;;5072557;28;20025;-70
2021/11/12 11:47:07;;;;;;;55.05;31.83;;;;;;;;;;5072516;28;20125;-70
2021/11/12 11:49:35;;;;;;;54.58;29.55;;;;;;;;;;5072595;28;20038;-70
2021/11/12 11:52:01;;;;;;;47.95;28.30;;;;;;;;;;5071706;28;20431;-70
2021/11/12 11:54:27;;;;;;;52.30;29.92;;;;;;;;;;5054019;28;20020;-74
2021/11/12 11:56:55;;;;;;;52.13;30.92;;;;;;;;;;5072851;28;20043;-74
2021/11/12 11:59:29;;;;;;;50.83;31.83;;;;;;;;;;5072758;28;20028;-74
2021/11/12 12:01:55;;;;;;;53.10;30.17;;;;;;;;;;5072659;28;20063;-74
2021/11/12 12:04:21;;;;;;;53.35;30.65;;;;;;;;;;5072814;28;20025;-74
2021/11/12 12:07:04;;;;;;;54.90;30.70;;;;;;;;;;5072122;28;20098;-73
2021/11/12 12:09:49;;;;;;;47.60;27.52;;;;;;;;;;5072296;28;20068;-70
2021/11/12 12:12:35;;;;;;;138.48;90.20;;;;;;;;;;5071857;28;20036;-70
2021/11/12 12:15:01;;;;;;;69.00;41.90;;;;;;;;;;5055574;28;20037;-70
2021/11/12 12:17:26;;;;;;;51.75;30.05;;;;;;;;;;5072809;28;20086;-70
2021/11/12 12:20:07;;;;;;;41.35;25.80;;;;;;;;;;5054909;28;20041;-70
2021/11/12 12:30:55;;;;;;;51.55;30.63;;;;;;;;;;5072137;28;20041;-70
2021/11/12 13:22:40;;;;;;;53.40;32.30;;;;;;;;;;5075236;28;20068;-75
2021/11/12 13:25:07;;;;;;;55.25;31.73;;;;;;;;;;5074823;28;20048;-75
2021/11/12 13:27:32;;;;;;;55.70;32.42;;;;;;;;;;5075194;28;20124;-75
2021/11/12 13:29:58;;;;;;;45.05;27.92;;;;;;;;;;5075284;28;20072;-75
2021/11/12 13:32:23;;;;;;;51.78;31.65;;;;;;;;;;5075258;28;20040;-75
2021/11/12 13:34:49;;;;;;;59.03;34.70;;;;;;;;;;5074787;28;20063;-74
2021/11/12 13:37:23;;;;;;;62.80;35.53;;;;;;;;;;5075204;28;20033;-74
2021/11/12 13:40:01;;;;;;;55.90;35.33;;;;;;;;;;5075105;28;20035;-75
2021/11/12 13:42:29;;;;;;;62.92;35.58;;;;;;;;;;5056776;28;20064;-75
2021/11/12 13:44:56;;;;;;;55.88;34.45;;;;;;;;;;5074924;28;20119;-75
2021/11/12 13:47:23;;;;;;;53.22;32.05;;;;;;;;;;5073166;28;20089;-75
2021/11/12 13:49:52;;;;;;;49.90;29.55;;;;;;;;;;5056869;28;20337;-75
2021/11/12 13:52:28;;;;;;;50.40;32.65;;;;;;;;;;5074473;28;20033;-75
2021/11/12 13:54:55;;;;;;;53.83;32.75;;;;;;;;;;5074719;28;20024;-75
2021/11/12 14:00:56;;;;;;;47.97;28.48;;;;;;;;;;5075027;28;20062;-75
2021/11/12 14:03:40;;;;;;;55.95;32.20;;;;;;;;;;5074612;28;20036;-74
2021/11/12 14:06:10;;;;;;;54.88;32.92;;;;;;;;;;5073028;28;20119;-75
2021/11/12 14:08:41;;;;;;;54.95;32.47;;;;;;;;;;5073389;28;20044;-74
2021/11/12 14:11:16;;;;;;;56.97;34.28;;;;;;;;;;5073275;28;20029;-74
2021/11/12 14:13:44;;;;;;;63.67;35.38;;;;;;;;;;5070271;28;20109;-74
2021/11/12 14:16:25;;;;;;;49.63;31.85;;;;;;;;;;5055963;28;20503;-74
2021/11/12 14:21:50;;;;;;;45.80;27.50;;;;;;;;;;5071615;28;20383;-74
2021/11/12 14:37:57;;;;;;;53.25;32.35;;;;;;;;;;5056356;28;20468;-75
2021/11/12 14:40:48;;;;;;;57.25;33.55;;;;;;;;;;5073812;28;20048;-75
2021/11/12 14:53:06;;;;;;;60.08;36.92;;;;;;;;;;5073908;28;20095;-74
2021/11/12 15:06:51;;;;;;;53.03;33.00;;;;;;;;;;5074112;28;20457;-70
2021/11/12 15:12:52;;;;;;;53.10;33.88;;;;;;;;;;5073704;28;20079;-70
2021/11/12 15:18:58;;;;;;;79.65;54.10;;;;;;;;;;5073686;28;20073;-70
2021/11/12 15:28:52;;;;;;;87.45;44.38;;;;;;;;;;5072939;28;20045;-70
2021/11/12 15:33:58;;;;;;;68.82;40.13;;;;;;;;;;5072323;28;20067;-70
2021/11/12 15:36:23;;;;;;;79.15;47.42;;;;;;;;;;5072724;28;20033;-70
2021/11/12 15:38:58;;;;;;;59.30;35.88;;;;;;;;;;5072803;28;20602;-70
2021/11/12 15:43:57;;;;;;;94.78;48.97;;;;;;;;;;5072542;28;20028;-70
2021/11/12 15:46:25;;;;;;;;;;;;;;;;;;5073100;28;20047;-70
2021/11/12 15:48:51;;;;;;;64.78;34.88;;;;;;;;;;5072477;28;19905;-70
2021/11/12 15:51:25;;;;;;;63.58;34.70;;;;;;;;;;5072471;28;20392;-70
2021/11/12 15:56:48;;;;;;;70.95;41.10;;;;;;;;;;5072339;28;20230;-70
2021/11/12 16:23:13;;;;;;;69.13;40.40;;;;;;;;;;5076487;28;20036;-70
2021/11/12 16:25:41;;;;;;;163.98;92.88;;;;;;;;;;5041210;28;20051;-71
2021/11/12 16:28:09;;;;;;;90.03;55.22;;;;;;;;;;5076334;28;20090;-70
2021/11/12 16:30:36;;;;;;;79.65;49.97;;;;;;;;;;5075409;28;20496;-70
2021/11/12 16:33:03;;;;;;;71.47;45.53;;;;;;;;;;5075731;28;20041;-70
2021/11/12 16:35:31;;;;;;;65.05;42.28;;;;;;;;;;5075198;28;20041;-70
2021/11/12 16:38:01;;;;;;;57.67;37.05;;;;;;;;;;5075933;28;20017;-70
2021/11/12 16:40:33;;;;;;;78.60;49.40;;;;;;;;;;5075815;28;20093;-70
2021/11/12 16:43:24;;;;;;;64.00;39.63;;;;;;;;;;5075897;28;20049;-70
2021/11/12 16:48:36;;;;;;;56.75;36.10;;;;;;;;;;5075920;28;20072;-70
2021/11/12 16:58:46;;;;;;;66.07;40.85;;;;;;;;;;5075526;28;20158;-70
2021/11/12 17:04:19;;;;;;;;;;;;;;;;;;4997621;28;20282;-70
2021/11/12 17:06:52;;;;;;;61.60;37.00;;;;;;;;;;5064970;28;20387;-70
2021/11/12 17:09:29;;;;;;;59.42;36.85;;;;;;;;;;5075337;28;20395;-70
2021/11/12 17:14:48;;;;;;;65.95;38.55;;;;;;;;;;5075030;28;20056;-70
2021/11/12 17:17:31;;;;;;;72.40;42.35;;;;;;;;;;5074931;28;20032;-70
2021/11/12 17:47:07;;;;;;;65.45;38.30;;;;;;;;;;5074460;28;20511;-71
2021/11/12 21:44:15;;;;;;;58.95;30.00;;;;;;;;;;5075226;28;20029;-74
2021/11/12 21:46:41;;;;;;;54.42;28.85;;;;;;;;;;5075191;28;20040;-75
2021/11/12 21:49:08;;;;;;;61.17;30.67;;;;;;;;;;5074948;28;20503;-74
2021/11/12 21:51:40;;;;;;;56.70;29.00;;;;;;;;;;5074883;28;20036;-74
2021/11/12 21:54:06;;;;;;;57.97;30.60;;;;;;;;;;5075439;28;20508;-74
2021/11/12 21:56:33;;;;;;;60.20;30.75;;;;;;;;;;5075071;28;20032;-74
2021/11/12 21:58:59;;;;;;;56.60;28.02;;;;;;;;;;5056793;28;20036;-75
2021/11/12 22:01:25;;;;;;;59.55;29.80;;;;;;;;;;5074938;28;20025;-75
2021/11/12 22:03:52;;;;;;;58.38;30.27;;;;;;;;;;5074978;28;20037;-74
2021/11/12 22:06:17;;;;;;;64.97;32.97;;;;;;;;;;5074874;28;20032;-75
2021/11/12 22:08:43;;;;;;;66.88;32.28;;;;;;;;;;5073696;28;20033;-74
2021/11/12 22:11:09;;;;;;;70.57;34.75;;;;;;;;;;5074953;28;20075;-75
2021/11/12 22:13:37;;;;;;;76.28;36.65;;;;;;;;;;5074016;28;20120;-74
2021/11/12 22:16:10;;;;;;;71.18;34.22;;;;;;;;;;5074301;28;20029;-74
2021/11/12 22:18:36;;;;;;;69.30;35.80;;;;;;;;;;5073724;28;20484;-74
2021/11/12 22:21:02;;;;;;;62.75;31.73;;;;;;;;;;5074099;28;20133;-75
2021/11/12 22:23:28;;;;;;;58.55;29.92;;;;;;;;;;5074131;28;20032;-75
2021/11/12 22:25:54;;;;;;;58.08;29.15;;;;;;;;;;5074125;28;20020;-75
2021/11/12 22:28:20;;;;;;;55.33;29.20;;;;;;;;;;5073943;28;20043;-74
2021/11/12 22:30:46;;;;;;;53.00;27.73;;;;;;;;;;5073529;28;20045;-74
2021/11/12 22:33:11;;;;;;;63.42;30.05;;;;;;;;;;5073763;28;20036;-74
2021/11/12 22:35:40;;;;;;;55.00;29.27;;;;;;;;;;5055810;28;20032;-69
2021/11/12 22:38:06;;;;;;;64.55;31.83;;;;;;;;;;5073676;28;20041;-71
2021/11/12 22:40:32;;;;;;;55.40;29.23;;;;;;;;;;5073727;28;20490;-72
2021/11/12 22:42:58;;;;;;;55.25;29.65;;;;;;;;;;5055989;28;20068;-71
2021/11/12 22:45:24;;;;;;;54.90;28.23;;;;;;;;;;5073443;28;20063;-71
2021/11/12 22:47:49;;;;;;;62.42;31.40;;;;;;;;;;5073472;28;20040;-71
2021/11/12 22:50:15;;;;;;;61.20;30.95;;;;;;;;;;5073463;28;20404;-71
2021/11/12 22:52:41;;;;;;;61.35;30.48;;;;;;;;;;5073455;28;20036;-71
2021/11/12 22:55:07;;;;;;;56.33;29.55;;;;;;;;;;5055515;28;20024;-71
2021/11/12 22:57:32;;;;;;;60.85;30.75;;;;;;;;;;5073586;28;20502;-71
2021/11/12 22:59:58;;;;;;;60.20;30.77;;;;;;;;;;5073360;28;20111;-71
2021/11/12 23:02:24;;;;;;;60.03;30.30;;;;;;;;;;5073332;28;20042;-70
2021/11/12 23:04:49;;;;;;;58.92;29.60;;;;;;;;;;5073309;28;20033;-71
2021/11/12 23:07:16;;;;;;;58.70;29.42;;;;;;;;;;5073371;28;20067;-70
2021/11/12 23:09:44;;;;;;;59.45;30.08;;;;;;;;;;5055464;28;20484;-70
2021/11/12 23:12:11;;;;;;;43.30;22.77;;;;;;;;;;5073015;28;20055;-71
2021/11/12 23:14:36;;;;;;;49.38;27.30;;;;;;;;;;5073187;28;20031;-71
2021/11/12 23:17:02;;;;;;;51.50;27.08;;;;;;;;;;5073322;28;20119;-71
2021/11/12 23:19:27;;;;;;;55.53;28.25;;;;;;;;;;5073031;28;20399;-70
2021/11/12 23:21:53;;;;;;;51.92;27.58;;;;;;;;;;5073286;28;20102;-71
2021/11/12 23:24:18;;;;;;;52.53;29.05;;;;;;;;;;5073144;28;20033;-71
2021/11/12 23:26:44;;;;;;;56.65;29.17;;;;;;;;;;5073058;28;20079;-71
2021/11/12 23:29:09;;;;;;;55.15;30.00;;;;;;;;;;5054827;28;20032;-70
2021/11/12 23:31:35;;;;;;;61.85;32.00;;;;;;;;;;5073115;28;20033;-71
2021/11/12 23:34:02;;;;;;;62.80;32.67;;;;;;;;;;5072957;28;20037;-71
2021/11/12 23:36:28;;;;;;;67.95;34.30;;;;;;;;;;5072893;28;20143;-71
2021/11/12 23:38:53;;;;;;;71.97;36.17;;;;;;;;;;5072872;28;20094;-71
2021/11/12 23:41:19;;;;;;;56.08;29.73;;;;;;;;;;5073021;28;20495;-70
2021/11/12 23:43:45;;;;;;;57.63;31.38;;;;;;;;;;5072968;28;20029;-70
2021/11/12 23:46:11;;;;;;;62.30;31.80;;;;;;;;;;5072911;28;20032;-70
2021/11/12 23:48:36;;;;;;;60.05;29.33;;;;;;;;;;5072823;28;20028;-69
2021/11/12 23:51:02;;;;;;;52.28;27.63;;;;;;;;;;5072766;28;20079;-70
2021/11/12 23:53:27;;;;;;;59.70;30.15;;;;;;;;;;5072730;28;20071;-69
2021/11/12 23:55:53;;;;;;;58.78;29.25;;;;;;;;;;5072864;28;20025;-69
2021/11/12 23:58:18;;;;;;;55.63;27.58;;;;;;;;;;5072807;28;20112;-70
